sensor_id;sensor_type;location;lat;lon;timestamp;P1;durP1;ratioP1;P2;durP2;ratioP2
11004;SDS011;5555;59.622;16.556;2023-02-03T00:00:13;5.63;;;2.50;;
11004;SDS011;5555;59.622;16.556;2023-02-03T00:02:40;6.73;;;2.60;;
11004;SDS011;5555;59.622;16.556;2023-02-03T00:05:06;8.37;;;3.13;;
11004;SDS011;5555;59.622;16.556;2023-02-03T00:07:32;5.67;;;2.73;;
11004;SDS011;5555;59.622;16.556;2023-02-03T00:10:00;8.80;;;3.00;;
11004;SDS011;5555;59.622;16.556;2023-02-03T00:12:25;7.23;;;3.27;;
11004;SDS011;5555;59.622;16.556;2023-02-03T00:14:51;5.87;;;2.63;;
11004;SDS011;5555;59.622;16.556;2023-02-03T00:17:17;6.97;;;3.17;;
11004;SDS011;5555;59.622;16.556;2023-02-03T00:19:42;4.83;;;2.63;;
11004;SDS011;5555;59.622;16.556;2023-02-03T00:22:08;7.53;;;2.60;;
11004;SDS011;5555;59.622;16.556;2023-02-03T00:24:33;4.60;;;2.63;;
11004;SDS011;5555;59.622;16.556;2023-02-03T00:26:59;6.27;;;2.90;;
11004;SDS011;5555;59.622;16.556;2023-02-03T00:29:24;4.73;;;2.93;;
11004;SDS011;5555;59.622;16.556;2023-02-03T00:31:51;5.73;;;2.83;;
11004;SDS011;5555;59.622;16.556;2023-02-03T00:34:17;4.27;;;2.50;;
11004;SDS011;5555;59.622;16.556;2023-02-03T00:36:43;6.37;;;2.50;;
11004;SDS011;5555;59.622;16.556;2023-02-03T00:39:12;7.07;;;2.77;;
11004;SDS011;5555;59.622;16.556;2023-02-03T00:41:38;4.63;;;2.53;;
11004;SDS011;5555;59.622;16.556;2023-02-03T00:44:04;4.83;;;2.27;;
11004;SDS011;5555;59.622;16.556;2023-02-03T00:46:29;7.07;;;3.10;;
11004;SDS011;5555;59.622;16.556;2023-02-03T00:48:55;4.50;;;2.70;;
11004;SDS011;5555;59.622;16.556;2023-02-03T00:51:20;3.67;;;2.57;;
11004;SDS011;5555;59.622;16.556;2023-02-03T00:53:47;7.10;;;2.40;;
11004;SDS011;5555;59.622;16.556;2023-02-03T00:56:13;5.63;;;2.57;;
11004;SDS011;5555;59.622;16.556;2023-02-03T00:58:39;4.00;;;2.43;;
11004;SDS011;5555;59.622;16.556;2023-02-03T01:01:05;4.13;;;3.10;;
11004;SDS011;5555;59.622;16.556;2023-02-03T01:03:30;10.40;;;2.47;;
11004;SDS011;5555;59.622;16.556;2023-02-03T01:05:56;5.00;;;2.40;;
11004;SDS011;5555;59.622;16.556;2023-02-03T01:08:32;3.10;;;2.27;;
11004;SDS011;5555;59.622;16.556;2023-02-03T01:10:57;5.43;;;2.50;;
11004;SDS011;5555;59.622;16.556;2023-02-03T01:13:23;4.37;;;2.60;;
11004;SDS011;5555;59.622;16.556;2023-02-03T01:15:49;5.33;;;2.70;;
11004;SDS011;5555;59.622;16.556;2023-02-03T01:18:14;6.37;;;2.50;;
11004;SDS011;5555;59.622;16.556;2023-02-03T01:20:40;4.43;;;2.60;;
11004;SDS011;5555;59.622;16.556;2023-02-03T01:23:05;9.57;;;2.77;;
11004;SDS011;5555;59.622;16.556;2023-02-03T01:25:33;4.47;;;2.63;;
11004;SDS011;5555;59.622;16.556;2023-02-03T01:27:59;6.87;;;2.80;;
11004;SDS011;5555;59.622;16.556;2023-02-03T01:30:25;6.67;;;2.83;;
11004;SDS011;5555;59.622;16.556;2023-02-03T01:32:50;4.70;;;2.80;;
11004;SDS011;5555;59.622;16.556;2023-02-03T01:35:16;3.17;;;2.57;;
11004;SDS011;5555;59.622;16.556;2023-02-03T01:37:41;5.73;;;2.30;;
11004;SDS011;5555;59.622;16.556;2023-02-03T01:40:07;4.33;;;3.10;;
11004;SDS011;5555;59.622;16.556;2023-02-03T01:42:33;4.87;;;2.40;;
11004;SDS011;5555;59.622;16.556;2023-02-03T01:44:59;4.97;;;3.47;;
11004;SDS011;5555;59.622;16.556;2023-02-03T01:49:58;6.03;;;2.77;;
11004;SDS011;5555;59.622;16.556;2023-02-03T01:52:25;5.17;;;2.40;;
11004;SDS011;5555;59.622;16.556;2023-02-03T01:54:53;5.10;;;3.27;;
11004;SDS011;5555;59.622;16.556;2023-02-03T01:57:23;9.97;;;2.77;;
11004;SDS011;5555;59.622;16.556;2023-02-03T01:59:53;8.07;;;2.90;;
11004;SDS011;5555;59.622;16.556;2023-02-03T02:02:21;7.03;;;3.03;;
11004;SDS011;5555;59.622;16.556;2023-02-03T02:04:59;6.10;;;2.70;;
11004;SDS011;5555;59.622;16.556;2023-02-03T02:07:30;8.73;;;2.77;;
11004;SDS011;5555;59.622;16.556;2023-02-03T02:09:58;8.90;;;2.60;;
11004;SDS011;5555;59.622;16.556;2023-02-03T02:12:24;6.33;;;2.47;;
11004;SDS011;5555;59.622;16.556;2023-02-03T02:14:50;8.70;;;2.47;;
11004;SDS011;5555;59.622;16.556;2023-02-03T02:22:39;9.63;;;3.30;;
11004;SDS011;5555;59.622;16.556;2023-02-03T02:31:12;7.30;;;2.77;;
11004;SDS011;5555;59.622;16.556;2023-02-03T02:39:27;11.77;;;3.20;;
11004;SDS011;5555;59.622;16.556;2023-02-03T02:42:14;10.13;;;3.50;;
11004;SDS011;5555;59.622;16.556;2023-02-03T02:44:49;6.57;;;3.43;;
11004;SDS011;5555;59.622;16.556;2023-02-03T02:47:18;5.50;;;2.73;;
11004;SDS011;5555;59.622;16.556;2023-02-03T02:49:53;8.73;;;3.30;;
11004;SDS011;5555;59.622;16.556;2023-02-03T02:52:22;9.73;;;3.37;;
11004;SDS011;5555;59.622;16.556;2023-02-03T02:54:54;10.27;;;3.20;;
11004;SDS011;5555;59.622;16.556;2023-02-03T02:57:25;10.83;;;3.27;;
11004;SDS011;5555;59.622;16.556;2023-02-03T02:59:53;7.07;;;3.10;;
11004;SDS011;5555;59.622;16.556;2023-02-03T03:02:18;5.97;;;2.70;;
11004;SDS011;5555;59.622;16.556;2023-02-03T03:04:44;6.70;;;3.13;;
11004;SDS011;5555;59.622;16.556;2023-02-03T03:07:17;12.50;;;3.47;;
11004;SDS011;5555;59.622;16.556;2023-02-03T03:09:48;5.40;;;2.93;;
11004;SDS011;5555;59.622;16.556;2023-02-03T03:12:18;6.33;;;3.70;;
11004;SDS011;5555;59.622;16.556;2023-02-03T03:14:59;7.17;;;3.13;;
11004;SDS011;5555;59.622;16.556;2023-02-03T03:17:32;8.30;;;3.10;;
11004;SDS011;5555;59.622;16.556;2023-02-03T03:20:05;6.20;;;3.17;;
11004;SDS011;5555;59.622;16.556;2023-02-03T03:22:35;8.83;;;3.50;;
11004;SDS011;5555;59.622;16.556;2023-02-03T03:25:09;4.87;;;2.90;;
11004;SDS011;5555;59.622;16.556;2023-02-03T03:27:39;9.50;;;4.13;;
11004;SDS011;5555;59.622;16.556;2023-02-03T03:30:12;8.37;;;3.30;;
11004;SDS011;5555;59.622;16.556;2023-02-03T03:32:42;6.70;;;3.60;;
11004;SDS011;5555;59.622;16.556;2023-02-03T03:35:08;8.90;;;3.20;;
11004;SDS011;5555;59.622;16.556;2023-02-03T03:37:35;9.97;;;4.07;;
11004;SDS011;5555;59.622;16.556;2023-02-03T03:42:44;4.07;;;3.23;;
11004;SDS011;5555;59.622;16.556;2023-02-03T03:45:18;12.17;;;3.93;;
11004;SDS011;5555;59.622;16.556;2023-02-03T03:49:05;5.57;;;3.17;;
11004;SDS011;5555;59.622;16.556;2023-02-03T03:51:17;8.47;;;3.33;;
11004;SDS011;5555;59.622;16.556;2023-02-03T03:53:49;5.10;;;3.07;;
11004;SDS011;5555;59.622;16.556;2023-02-03T03:56:18;7.60;;;2.90;;
11004;SDS011;5555;59.622;16.556;2023-02-03T03:58:49;8.40;;;3.27;;
11004;SDS011;5555;59.622;16.556;2023-02-03T04:01:17;8.50;;;3.13;;
11004;SDS011;5555;59.622;16.556;2023-02-03T04:03:46;6.83;;;3.50;;
11004;SDS011;5555;59.622;16.556;2023-02-03T04:06:14;13.33;;;3.93;;
11004;SDS011;5555;59.622;16.556;2023-02-03T04:08:40;12.73;;;3.80;;
11004;SDS011;5555;59.622;16.556;2023-02-03T04:11:05;12.43;;;4.00;;
11004;SDS011;5555;59.622;16.556;2023-02-03T04:13:31;6.43;;;3.17;;
11004;SDS011;5555;59.622;16.556;2023-02-03T04:15:57;7.13;;;3.47;;
11004;SDS011;5555;59.622;16.556;2023-02-03T04:18:23;7.10;;;3.50;;
11004;SDS011;5555;59.622;16.556;2023-02-03T04:20:48;6.53;;;3.97;;
11004;SDS011;5555;59.622;16.556;2023-02-03T04:23:14;6.40;;;3.77;;
11004;SDS011;5555;59.622;16.556;2023-02-03T04:25:40;4.97;;;3.40;;
11004;SDS011;5555;59.622;16.556;2023-02-03T04:28:05;6.93;;;3.03;;
11004;SDS011;5555;59.622;16.556;2023-02-03T04:30:31;6.50;;;3.43;;
11004;SDS011;5555;59.622;16.556;2023-02-03T04:32:57;8.20;;;3.83;;
11004;SDS011;5555;59.622;16.556;2023-02-03T04:35:23;6.37;;;3.67;;
11004;SDS011;5555;59.622;16.556;2023-02-03T04:37:48;6.40;;;3.90;;
11004;SDS011;5555;59.622;16.556;2023-02-03T04:40:14;5.47;;;3.30;;
11004;SDS011;5555;59.622;16.556;2023-02-03T04:42:40;6.03;;;3.27;;
11004;SDS011;5555;59.622;16.556;2023-02-03T04:45:06;6.93;;;3.40;;
11004;SDS011;5555;59.622;16.556;2023-02-03T04:47:33;6.93;;;3.67;;
11004;SDS011;5555;59.622;16.556;2023-02-03T04:49:59;5.33;;;3.47;;
11004;SDS011;5555;59.622;16.556;2023-02-03T04:52:25;9.67;;;3.77;;
11004;SDS011;5555;59.622;16.556;2023-02-03T04:54:51;13.17;;;4.13;;
11004;SDS011;5555;59.622;16.556;2023-02-03T04:57:16;7.03;;;3.50;;
11004;SDS011;5555;59.622;16.556;2023-02-03T04:59:42;6.90;;;3.63;;
11004;SDS011;5555;59.622;16.556;2023-02-03T05:02:08;7.53;;;4.27;;
11004;SDS011;5555;59.622;16.556;2023-02-03T05:04:33;5.33;;;4.10;;
11004;SDS011;5555;59.622;16.556;2023-02-03T05:06:59;5.90;;;3.47;;
11004;SDS011;5555;59.622;16.556;2023-02-03T05:09:25;7.07;;;3.90;;
11004;SDS011;5555;59.622;16.556;2023-02-03T05:11:51;6.37;;;3.73;;
11004;SDS011;5555;59.622;16.556;2023-02-03T05:14:17;8.13;;;3.97;;
11004;SDS011;5555;59.622;16.556;2023-02-03T05:16:43;6.70;;;3.93;;
11004;SDS011;5555;59.622;16.556;2023-02-03T05:19:09;9.70;;;3.80;;
11004;SDS011;5555;59.622;16.556;2023-02-03T05:21:34;8.43;;;3.33;;
11004;SDS011;5555;59.622;16.556;2023-02-03T05:24:00;4.97;;;3.67;;
11004;SDS011;5555;59.622;16.556;2023-02-03T05:26:27;5.00;;;3.97;;
11004;SDS011;5555;59.622;16.556;2023-02-03T05:28:53;4.83;;;3.37;;
11004;SDS011;5555;59.622;16.556;2023-02-03T05:31:19;6.33;;;4.37;;
11004;SDS011;5555;59.622;16.556;2023-02-03T05:33:44;4.90;;;3.93;;
11004;SDS011;5555;59.622;16.556;2023-02-03T05:36:10;6.70;;;4.27;;
11004;SDS011;5555;59.622;16.556;2023-02-03T05:38:35;8.57;;;4.57;;
11004;SDS011;5555;59.622;16.556;2023-02-03T05:41:01;5.03;;;3.90;;
11004;SDS011;5555;59.622;16.556;2023-02-03T05:43:45;5.70;;;4.03;;
11004;SDS011;5555;59.622;16.556;2023-02-03T05:46:11;5.77;;;4.20;;
11004;SDS011;5555;59.622;16.556;2023-02-03T05:48:36;8.30;;;5.20;;
11004;SDS011;5555;59.622;16.556;2023-02-03T05:51:02;8.67;;;4.53;;
11004;SDS011;5555;59.622;16.556;2023-02-03T05:53:27;5.80;;;4.50;;
11004;SDS011;5555;59.622;16.556;2023-02-03T05:55:53;7.47;;;4.57;;
11004;SDS011;5555;59.622;16.556;2023-02-03T05:58:19;6.50;;;4.50;;
11004;SDS011;5555;59.622;16.556;2023-02-03T06:00:44;6.23;;;4.27;;
11004;SDS011;5555;59.622;16.556;2023-02-03T06:03:11;8.07;;;4.67;;
11004;SDS011;5555;59.622;16.556;2023-02-03T06:05:36;9.13;;;4.50;;
11004;SDS011;5555;59.622;16.556;2023-02-03T06:08:05;7.47;;;4.90;;
11004;SDS011;5555;59.622;16.556;2023-02-03T06:10:31;8.90;;;4.83;;
11004;SDS011;5555;59.622;16.556;2023-02-03T06:12:57;6.63;;;4.83;;
11004;SDS011;5555;59.622;16.556;2023-02-03T06:15:23;6.60;;;4.70;;
11004;SDS011;5555;59.622;16.556;2023-02-03T06:17:48;5.37;;;4.50;;
11004;SDS011;5555;59.622;16.556;2023-02-03T06:20:15;9.40;;;4.90;;
11004;SDS011;5555;59.622;16.556;2023-02-03T06:22:42;6.03;;;4.40;;
11004;SDS011;5555;59.622;16.556;2023-02-03T06:25:08;6.43;;;4.63;;
11004;SDS011;5555;59.622;16.556;2023-02-03T06:27:34;7.13;;;4.90;;
11004;SDS011;5555;59.622;16.556;2023-02-03T06:29:59;8.13;;;4.97;;
11004;SDS011;5555;59.622;16.556;2023-02-03T06:32:25;6.97;;;4.87;;
11004;SDS011;5555;59.622;16.556;2023-02-03T06:34:51;11.17;;;4.67;;
11004;SDS011;5555;59.622;16.556;2023-02-03T06:37:16;17.50;;;5.67;;
11004;SDS011;5555;59.622;16.556;2023-02-03T06:39:42;12.97;;;5.57;;
11004;SDS011;5555;59.622;16.556;2023-02-03T06:42:08;8.23;;;4.63;;
11004;SDS011;5555;59.622;16.556;2023-02-03T06:44:33;9.13;;;5.10;;
11004;SDS011;5555;59.622;16.556;2023-02-03T06:46:59;6.03;;;4.53;;
11004;SDS011;5555;59.622;16.556;2023-02-03T06:49:27;8.83;;;4.87;;
11004;SDS011;5555;59.622;16.556;2023-02-03T06:51:53;7.70;;;4.83;;
11004;SDS011;5555;59.622;16.556;2023-02-03T06:54:19;6.77;;;4.60;;
11004;SDS011;5555;59.622;16.556;2023-02-03T06:56:45;9.47;;;4.80;;
11004;SDS011;5555;59.622;16.556;2023-02-03T06:59:11;8.87;;;4.53;;
11004;SDS011;5555;59.622;16.556;2023-02-03T07:01:37;6.97;;;4.77;;
11004;SDS011;5555;59.622;16.556;2023-02-03T07:04:02;8.63;;;4.37;;
11004;SDS011;5555;59.622;16.556;2023-02-03T07:06:29;5.87;;;4.17;;
11004;SDS011;5555;59.622;16.556;2023-02-03T07:08:57;7.03;;;4.27;;
11004;SDS011;5555;59.622;16.556;2023-02-03T07:11:24;5.10;;;4.10;;
11004;SDS011;5555;59.622;16.556;2023-02-03T07:13:50;6.67;;;4.73;;
11004;SDS011;5555;59.622;16.556;2023-02-03T07:16:16;6.47;;;4.13;;
11004;SDS011;5555;59.622;16.556;2023-02-03T07:18:42;6.27;;;3.97;;
11004;SDS011;5555;59.622;16.556;2023-02-03T07:21:08;9.10;;;4.43;;
11004;SDS011;5555;59.622;16.556;2023-02-03T07:23:34;11.13;;;4.30;;
11004;SDS011;5555;59.622;16.556;2023-02-03T07:26:01;6.27;;;4.97;;
11004;SDS011;5555;59.622;16.556;2023-02-03T07:28:29;6.67;;;4.30;;
11004;SDS011;5555;59.622;16.556;2023-02-03T07:30:55;8.03;;;4.43;;
11004;SDS011;5555;59.622;16.556;2023-02-03T07:33:21;7.80;;;4.30;;
11004;SDS011;5555;59.622;16.556;2023-02-03T07:35:54;6.87;;;4.70;;
11004;SDS011;5555;59.622;16.556;2023-02-03T07:38:20;9.93;;;5.00;;
11004;SDS011;5555;59.622;16.556;2023-02-03T07:40:46;10.00;;;5.20;;
11004;SDS011;5555;59.622;16.556;2023-02-03T07:43:12;7.17;;;4.63;;
11004;SDS011;5555;59.622;16.556;2023-02-03T07:45:38;5.63;;;4.30;;
11004;SDS011;5555;59.622;16.556;2023-02-03T07:48:04;8.87;;;4.67;;
11004;SDS011;5555;59.622;16.556;2023-02-03T07:50:29;6.60;;;4.10;;
11004;SDS011;5555;59.622;16.556;2023-02-03T07:52:57;6.27;;;4.20;;
11004;SDS011;5555;59.622;16.556;2023-02-03T07:55:23;9.93;;;5.03;;
11004;SDS011;5555;59.622;16.556;2023-02-03T07:57:48;7.40;;;5.13;;
11004;SDS011;5555;59.622;16.556;2023-02-03T08:00:14;8.37;;;4.70;;
11004;SDS011;5555;59.622;16.556;2023-02-03T08:02:41;6.17;;;4.37;;
11004;SDS011;5555;59.622;16.556;2023-02-03T08:05:07;5.67;;;4.40;;
11004;SDS011;5555;59.622;16.556;2023-02-03T08:07:34;6.90;;;4.20;;
11004;SDS011;5555;59.622;16.556;2023-02-03T08:09:59;5.57;;;3.83;;
11004;SDS011;5555;59.622;16.556;2023-02-03T08:12:25;7.60;;;4.80;;
11004;SDS011;5555;59.622;16.556;2023-02-03T08:14:51;5.47;;;3.93;;
11004;SDS011;5555;59.622;16.556;2023-02-03T08:17:16;5.57;;;4.30;;
11004;SDS011;5555;59.622;16.556;2023-02-03T08:19:42;6.83;;;4.43;;
11004;SDS011;5555;59.622;16.556;2023-02-03T08:22:08;8.70;;;5.83;;
11004;SDS011;5555;59.622;16.556;2023-02-03T08:24:39;8.47;;;5.93;;
11004;SDS011;5555;59.622;16.556;2023-02-03T08:27:11;9.90;;;6.40;;
11004;SDS011;5555;59.622;16.556;2023-02-03T08:29:40;10.67;;;6.70;;
11004;SDS011;5555;59.622;16.556;2023-02-03T08:32:11;6.50;;;5.33;;
11004;SDS011;5555;59.622;16.556;2023-02-03T08:34:38;10.27;;;5.80;;
11004;SDS011;5555;59.622;16.556;2023-02-03T08:37:03;12.63;;;5.30;;
11004;SDS011;5555;59.622;16.556;2023-02-03T08:39:29;6.93;;;4.50;;
11004;SDS011;5555;59.622;16.556;2023-02-03T08:41:55;5.90;;;4.47;;
11004;SDS011;5555;59.622;16.556;2023-02-03T08:44:21;5.37;;;4.13;;
11004;SDS011;5555;59.622;16.556;2023-02-03T08:46:51;4.70;;;3.90;;
11004;SDS011;5555;59.622;16.556;2023-02-03T08:49:18;4.87;;;3.47;;
11004;SDS011;5555;59.622;16.556;2023-02-03T08:51:45;4.83;;;3.53;;
11004;SDS011;5555;59.622;16.556;2023-02-03T08:54:12;6.00;;;2.97;;
11004;SDS011;5555;59.622;16.556;2023-02-03T08:56:38;4.40;;;3.20;;
11004;SDS011;5555;59.622;16.556;2023-02-03T08:59:05;5.53;;;2.70;;
11004;SDS011;5555;59.622;16.556;2023-02-03T09:01:30;4.57;;;2.70;;
11004;SDS011;5555;59.622;16.556;2023-02-03T09:03:56;7.40;;;3.13;;
11004;SDS011;5555;59.622;16.556;2023-02-03T09:06:22;2.50;;;2.20;;
11004;SDS011;5555;59.622;16.556;2023-02-03T09:08:48;2.77;;;2.37;;
11004;SDS011;5555;59.622;16.556;2023-02-03T09:11:16;4.27;;;2.60;;
11004;SDS011;5555;59.622;16.556;2023-02-03T09:13:43;2.77;;;2.20;;
11004;SDS011;5555;59.622;16.556;2023-02-03T09:16:12;4.27;;;2.70;;
11004;SDS011;5555;59.622;16.556;2023-02-03T09:18:41;3.67;;;2.47;;
11004;SDS011;5555;59.622;16.556;2023-02-03T09:21:08;3.70;;;2.50;;
11004;SDS011;5555;59.622;16.556;2023-02-03T09:23:38;4.47;;;2.90;;
11004;SDS011;5555;59.622;16.556;2023-02-03T09:26:08;3.23;;;2.60;;
11004;SDS011;5555;59.622;16.556;2023-02-03T09:28:35;3.40;;;2.20;;
11004;SDS011;5555;59.622;16.556;2023-02-03T09:31:02;8.63;;;2.70;;
11004;SDS011;5555;59.622;16.556;2023-02-03T09:33:32;3.13;;;2.50;;
11004;SDS011;5555;59.622;16.556;2023-02-03T09:35:58;4.70;;;2.77;;
11004;SDS011;5555;59.622;16.556;2023-02-03T09:38:24;3.30;;;2.23;;
11004;SDS011;5555;59.622;16.556;2023-02-03T09:40:52;3.13;;;2.67;;
11004;SDS011;5555;59.622;16.556;2023-02-03T09:43:34;4.47;;;2.60;;
11004;SDS011;5555;59.622;16.556;2023-02-03T09:46:13;4.93;;;2.50;;
11004;SDS011;5555;59.622;16.556;2023-02-03T09:48:43;5.00;;;2.60;;
11004;SDS011;5555;59.622;16.556;2023-02-03T09:51:29;5.77;;;2.50;;
11004;SDS011;5555;59.622;16.556;2023-02-03T09:54:03;4.57;;;2.63;;
11004;SDS011;5555;59.622;16.556;2023-02-03T09:56:31;3.87;;;2.20;;
11004;SDS011;5555;59.622;16.556;2023-02-03T09:58:59;5.20;;;3.00;;
11004;SDS011;5555;59.622;16.556;2023-02-03T10:01:27;3.87;;;2.50;;
11004;SDS011;5555;59.622;16.556;2023-02-03T10:04:10;5.87;;;2.00;;
11004;SDS011;5555;59.622;16.556;2023-02-03T10:07:19;3.37;;;2.33;;
11004;SDS011;5555;59.622;16.556;2023-02-03T10:15:21;5.07;;;2.77;;
11004;SDS011;5555;59.622;16.556;2023-02-03T10:17:55;3.90;;;2.70;;
11004;SDS011;5555;59.622;16.556;2023-02-03T10:20:41;3.50;;;2.50;;
11004;SDS011;5555;59.622;16.556;2023-02-03T10:23:12;6.97;;;3.37;;
11004;SDS011;5555;59.622;16.556;2023-02-03T10:26:00;6.33;;;3.80;;
11004;SDS011;5555;59.622;16.556;2023-02-03T10:28:33;7.87;;;4.03;;
11004;SDS011;5555;59.622;16.556;2023-02-03T10:31:05;5.57;;;3.00;;
11004;SDS011;5555;59.622;16.556;2023-02-03T10:33:42;8.13;;;3.40;;
11004;SDS011;5555;59.622;16.556;2023-02-03T10:36:20;5.97;;;2.83;;
11004;SDS011;5555;59.622;16.556;2023-02-03T10:38:58;9.20;;;3.20;;
11004;SDS011;5555;59.622;16.556;2023-02-03T10:41:32;8.33;;;3.13;;
11004;SDS011;5555;59.622;16.556;2023-02-03T10:43:57;4.20;;;2.10;;
11004;SDS011;5555;59.622;16.556;2023-02-03T10:48:54;2.33;;;1.93;;
11004;SDS011;5555;59.622;16.556;2023-02-03T10:53:48;3.40;;;1.77;;
11004;SDS011;5555;59.622;16.556;2023-02-03T10:56:36;2.77;;;1.73;;
11004;SDS011;5555;59.622;16.556;2023-02-03T10:59:03;3.10;;;1.40;;
11004;SDS011;5555;59.622;16.556;2023-02-03T11:01:39;3.77;;;1.50;;
11004;SDS011;5555;59.622;16.556;2023-02-03T11:04:19;3.60;;;1.40;;
11004;SDS011;5555;59.622;16.556;2023-02-03T11:06:54;7.23;;;1.17;;
11004;SDS011;5555;59.622;16.556;2023-02-03T11:09:27;2.73;;;1.17;;
11004;SDS011;5555;59.622;16.556;2023-02-03T11:12:14;2.30;;;1.30;;
11004;SDS011;5555;59.622;16.556;2023-02-03T11:14:45;4.83;;;2.17;;
11004;SDS011;5555;59.622;16.556;2023-02-03T11:17:22;3.13;;;1.53;;
11004;SDS011;5555;59.622;16.556;2023-02-03T11:19:51;2.83;;;1.87;;
11004;SDS011;5555;59.622;16.556;2023-02-03T11:22:26;6.60;;;1.40;;
11004;SDS011;5555;59.622;16.556;2023-02-03T11:24:52;2.67;;;1.10;;
11004;SDS011;5555;59.622;16.556;2023-02-03T11:27:18;3.50;;;1.10;;
11004;SDS011;5555;59.622;16.556;2023-02-03T11:29:47;2.20;;;1.17;;
11004;SDS011;5555;59.622;16.556;2023-02-03T11:34:57;3.70;;;1.50;;
11004;SDS011;5555;59.622;16.556;2023-02-03T11:37:33;2.80;;;1.40;;
11004;SDS011;5555;59.622;16.556;2023-02-03T11:42:35;3.80;;;1.43;;
11004;SDS011;5555;59.622;16.556;2023-02-03T11:47:45;3.30;;;1.80;;
11004;SDS011;5555;59.622;16.556;2023-02-03T11:52:58;5.63;;;1.27;;
11004;SDS011;5555;59.622;16.556;2023-02-03T12:04:05;4.60;;;1.40;;
11004;SDS011;5555;59.622;16.556;2023-02-03T12:06:58;3.40;;;1.40;;
11004;SDS011;5555;59.622;16.556;2023-02-03T12:18:22;3.80;;;1.97;;
11004;SDS011;5555;59.622;16.556;2023-02-03T12:23:47;6.83;;;1.93;;
11004;SDS011;5555;59.622;16.556;2023-02-03T12:26:25;7.50;;;1.60;;
11004;SDS011;5555;59.622;16.556;2023-02-03T12:32:03;9.13;;;1.60;;
11004;SDS011;5555;59.622;16.556;2023-02-03T12:34:47;3.67;;;1.70;;
11004;SDS011;5555;59.622;16.556;2023-02-03T12:37:22;7.70;;;1.63;;
11004;SDS011;5555;59.622;16.556;2023-02-03T12:39:56;3.67;;;1.30;;
11004;SDS011;5555;59.622;16.556;2023-02-03T12:42:26;4.23;;;1.27;;
11004;SDS011;5555;59.622;16.556;2023-02-03T12:47:36;7.87;;;1.93;;
11004;SDS011;5555;59.622;16.556;2023-02-03T12:52:37;4.83;;;2.10;;
11004;SDS011;5555;59.622;16.556;2023-02-03T12:58:04;5.23;;;1.47;;
11004;SDS011;5555;59.622;16.556;2023-02-03T13:00:56;4.17;;;1.30;;
11004;SDS011;5555;59.622;16.556;2023-02-03T13:06:10;3.37;;;1.37;;
11004;SDS011;5555;59.622;16.556;2023-02-03T13:08:49;4.00;;;1.53;;
11004;SDS011;5555;59.622;16.556;2023-02-03T13:11:51;5.07;;;1.30;;
11004;SDS011;5555;59.622;16.556;2023-02-03T13:14:35;4.20;;;1.37;;
11004;SDS011;5555;59.622;16.556;2023-02-03T13:17:07;6.43;;;1.20;;
11004;SDS011;5555;59.622;16.556;2023-02-03T13:19:48;2.03;;;1.20;;
11004;SDS011;5555;59.622;16.556;2023-02-03T13:22:18;7.33;;;1.13;;
11004;SDS011;5555;59.622;16.556;2023-02-03T13:24:49;5.47;;;1.30;;
11004;SDS011;5555;59.622;16.556;2023-02-03T13:27:56;6.10;;;1.33;;
11004;SDS011;5555;59.622;16.556;2023-02-03T13:30:43;2.80;;;1.30;;
11004;SDS011;5555;59.622;16.556;2023-02-03T13:36:20;4.13;;;1.23;;
11004;SDS011;5555;59.622;16.556;2023-02-03T13:39:06;3.00;;;1.20;;
11004;SDS011;5555;59.622;16.556;2023-02-03T13:41:38;3.70;;;1.50;;
11004;SDS011;5555;59.622;16.556;2023-02-03T13:44:10;6.33;;;1.43;;
11004;SDS011;5555;59.622;16.556;2023-02-03T13:46:38;5.47;;;1.67;;
11004;SDS011;5555;59.622;16.556;2023-02-03T13:49:04;6.33;;;1.67;;
11004;SDS011;5555;59.622;16.556;2023-02-03T13:51:33;1.93;;;1.20;;
11004;SDS011;5555;59.622;16.556;2023-02-03T13:56:30;6.53;;;1.67;;
11004;SDS011;5555;59.622;16.556;2023-02-03T13:58:57;2.57;;;1.30;;
11004;SDS011;5555;59.622;16.556;2023-02-03T14:01:31;1.47;;;0.90;;
11004;SDS011;5555;59.622;16.556;2023-02-03T14:04:04;2.80;;;1.20;;
11004;SDS011;5555;59.622;16.556;2023-02-03T14:09:18;4.27;;;1.70;;
11004;SDS011;5555;59.622;16.556;2023-02-03T14:12:17;4.70;;;1.60;;
11004;SDS011;5555;59.622;16.556;2023-02-03T14:22:52;4.80;;;1.43;;
11004;SDS011;5555;59.622;16.556;2023-02-03T14:25:20;4.40;;;1.83;;
11004;SDS011;5555;59.622;16.556;2023-02-03T14:27:47;5.50;;;1.30;;
11004;SDS011;5555;59.622;16.556;2023-02-03T14:30:24;5.50;;;2.30;;
11004;SDS011;5555;59.622;16.556;2023-02-03T14:33:00;4.60;;;1.47;;
11004;SDS011;5555;59.622;16.556;2023-02-03T14:35:33;2.57;;;1.40;;
11004;SDS011;5555;59.622;16.556;2023-02-03T14:38:02;4.33;;;1.40;;
11004;SDS011;5555;59.622;16.556;2023-02-03T14:40:39;4.17;;;2.03;;
11004;SDS011;5555;59.622;16.556;2023-02-03T14:51:22;1.83;;;1.23;;
11004;SDS011;5555;59.622;16.556;2023-02-03T14:59:27;2.27;;;1.50;;
11004;SDS011;5555;59.622;16.556;2023-02-03T15:04:26;3.57;;;1.37;;
11004;SDS011;5555;59.622;16.556;2023-02-03T15:06:52;2.63;;;1.60;;
11004;SDS011;5555;59.622;16.556;2023-02-03T15:11:47;4.20;;;1.47;;
11004;SDS011;5555;59.622;16.556;2023-02-03T15:14:13;2.83;;;1.70;;
11004;SDS011;5555;59.622;16.556;2023-02-03T15:16:53;4.87;;;1.30;;
11004;SDS011;5555;59.622;16.556;2023-02-03T15:19:22;8.00;;;2.20;;
11004;SDS011;5555;59.622;16.556;2023-02-03T15:21:50;3.30;;;1.50;;
11004;SDS011;5555;59.622;16.556;2023-02-03T15:24:17;1.83;;;1.10;;
11004;SDS011;5555;59.622;16.556;2023-02-03T15:26:47;4.00;;;1.43;;
11004;SDS011;5555;59.622;16.556;2023-02-03T15:29:22;4.37;;;1.50;;
11004;SDS011;5555;59.622;16.556;2023-02-03T15:32:00;3.80;;;1.10;;
11004;SDS011;5555;59.622;16.556;2023-02-03T15:34:42;10.57;;;1.63;;
11004;SDS011;5555;59.622;16.556;2023-02-03T15:42:55;3.07;;;1.40;;
11004;SDS011;5555;59.622;16.556;2023-02-03T15:45:32;2.47;;;1.40;;
11004;SDS011;5555;59.622;16.556;2023-02-03T15:48:18;2.33;;;1.50;;
11004;SDS011;5555;59.622;16.556;2023-02-03T15:50:56;4.77;;;1.80;;
11004;SDS011;5555;59.622;16.556;2023-02-03T15:53:33;3.87;;;1.37;;
11004;SDS011;5555;59.622;16.556;2023-02-03T15:56:10;2.67;;;1.20;;
11004;SDS011;5555;59.622;16.556;2023-02-03T15:58:46;1.60;;;1.20;;
11004;SDS011;5555;59.622;16.556;2023-02-03T16:01:13;6.90;;;2.13;;
11004;SDS011;5555;59.622;16.556;2023-02-03T16:03:53;2.77;;;1.43;;
11004;SDS011;5555;59.622;16.556;2023-02-03T16:08:52;2.57;;;1.60;;
11004;SDS011;5555;59.622;16.556;2023-02-03T16:11:19;4.83;;;1.63;;
11004;SDS011;5555;59.622;16.556;2023-02-03T16:13:47;3.37;;;1.53;;
11004;SDS011;5555;59.622;16.556;2023-02-03T16:16:14;4.30;;;1.43;;
11004;SDS011;5555;59.622;16.556;2023-02-03T16:18:48;3.37;;;1.47;;
11004;SDS011;5555;59.622;16.556;2023-02-03T16:23:53;3.63;;;1.70;;
11004;SDS011;5555;59.622;16.556;2023-02-03T16:26:18;3.63;;;1.87;;
11004;SDS011;5555;59.622;16.556;2023-02-03T16:28:56;4.27;;;1.67;;
11004;SDS011;5555;59.622;16.556;2023-02-03T16:31:46;3.17;;;1.50;;
11004;SDS011;5555;59.622;16.556;2023-02-03T16:34:30;2.73;;;1.67;;
11004;SDS011;5555;59.622;16.556;2023-02-03T16:37:31;2.20;;;1.70;;
11004;SDS011;5555;59.622;16.556;2023-02-03T16:40:18;1.93;;;1.20;;
11004;SDS011;5555;59.622;16.556;2023-02-03T16:43:07;3.27;;;1.43;;
11004;SDS011;5555;59.622;16.556;2023-02-03T16:45:58;2.87;;;1.70;;
11004;SDS011;5555;59.622;16.556;2023-02-03T16:48:43;3.57;;;1.47;;
11004;SDS011;5555;59.622;16.556;2023-02-03T16:51:33;2.37;;;1.33;;
11004;SDS011;5555;59.622;16.556;2023-02-03T16:54:03;3.73;;;1.40;;
11004;SDS011;5555;59.622;16.556;2023-02-03T16:56:29;3.33;;;1.30;;
11004;SDS011;5555;59.622;16.556;2023-02-03T16:58:55;2.57;;;1.30;;
11004;SDS011;5555;59.622;16.556;2023-02-03T17:01:21;5.83;;;1.50;;
11004;SDS011;5555;59.622;16.556;2023-02-03T17:03:46;7.50;;;1.93;;
11004;SDS011;5555;59.622;16.556;2023-02-03T17:06:12;4.00;;;1.60;;
11004;SDS011;5555;59.622;16.556;2023-02-03T17:08:39;2.60;;;1.10;;